createdAt,value
2022-09-11T00:00:17.730Z,4.90
2022-09-11T00:01:18.071Z,4.40
2022-09-11T00:02:18.322Z,4.10
2022-09-11T00:03:18.538Z,4.70
2022-09-11T00:04:18.770Z,4.70
2022-09-11T00:05:19.205Z,5.30
2022-09-11T00:06:28.863Z,5.70
2022-09-11T00:07:20.768Z,7.60
2022-09-11T00:08:20.065Z,10.20
2022-09-11T00:09:20.408Z,8.50
2022-09-11T00:10:20.645Z,9.60
2022-09-11T00:11:20.887Z,7.60
2022-09-11T00:12:21.259Z,7.20
2022-09-11T00:13:21.650Z,6.60
2022-09-11T00:14:21.829Z,5.30
2022-09-11T00:15:22.075Z,3.90
2022-09-11T00:16:23.642Z,4.20
2022-09-11T00:17:22.702Z,3.60
2022-09-11T00:18:22.980Z,4.20
2022-09-11T00:19:23.312Z,4.60
2022-09-11T00:20:23.642Z,4.40
2022-09-11T00:21:23.919Z,3.90
2022-09-11T00:22:24.107Z,3.00
2022-09-11T00:23:24.421Z,2.80
2022-09-11T00:24:24.718Z,2.90
2022-09-11T00:25:25.007Z,2.70
2022-09-11T00:26:25.311Z,2.40
2022-09-11T00:27:25.652Z,2.60
2022-09-11T00:28:25.947Z,2.40
2022-09-11T00:29:26.236Z,2.40
2022-09-11T00:30:26.420Z,2.40
2022-09-11T00:31:26.734Z,2.50
2022-09-11T00:32:27.067Z,2.40
2022-09-11T00:33:27.368Z,2.30
2022-09-11T00:34:27.662Z,2.50
2022-09-11T00:35:27.962Z,2.60
2022-09-11T00:36:28.263Z,2.60
2022-09-11T00:37:28.527Z,2.70
2022-09-11T00:38:28.728Z,2.40
2022-09-11T00:39:29.054Z,2.70
2022-09-11T00:40:29.420Z,2.50
2022-09-11T00:41:29.669Z,2.50
2022-09-11T00:42:29.919Z,2.90
2022-09-11T00:43:30.308Z,2.70
2022-09-11T00:44:30.670Z,3.60
2022-09-11T00:45:30.866Z,4.00
2022-09-11T00:46:31.160Z,3.80
2022-09-11T00:47:31.442Z,3.60
2022-09-11T00:48:31.780Z,3.30
2022-09-11T00:49:32.071Z,2.70
2022-09-11T00:50:32.535Z,2.60
2022-09-11T00:51:32.650Z,2.80
2022-09-11T00:52:32.965Z,2.60
2022-09-11T00:53:33.346Z,2.70
2022-09-11T00:54:33.583Z,2.90
2022-09-11T00:55:33.810Z,3.40
2022-09-11T00:56:34.176Z,3.10
2022-09-11T00:57:34.498Z,3.30
2022-09-11T00:58:34.706Z,3.40
2022-09-11T00:59:35.055Z,2.90
2022-09-11T01:00:35.306Z,3.30
2022-09-11T01:01:35.577Z,3.20
2022-09-11T01:02:35.860Z,3.30
2022-09-11T01:03:36.127Z,4.20
2022-09-11T01:04:36.379Z,3.80
2022-09-11T01:05:36.695Z,4.10
2022-09-11T01:06:37.009Z,3.90
2022-09-11T01:07:37.302Z,3.40
2022-09-11T01:08:38.502Z,3.60
2022-09-11T01:09:37.836Z,3.00
2022-09-11T01:10:38.115Z,2.90
2022-09-11T01:11:38.381Z,3.00
2022-09-11T01:12:38.668Z,3.00
2022-09-11T01:13:39.149Z,3.00
2022-09-11T01:14:39.210Z,2.80
2022-09-11T01:15:39.582Z,3.00
2022-09-11T01:16:39.954Z,3.90
2022-09-11T01:17:40.190Z,4.70
2022-09-11T01:18:40.413Z,3.50
2022-09-11T01:19:40.697Z,2.80
2022-09-11T01:20:40.948Z,3.00
2022-09-11T01:21:41.247Z,2.80
2022-09-11T01:22:41.549Z,2.60
2022-09-11T01:23:41.860Z,2.80
2022-09-11T01:24:42.132Z,2.90
2022-09-11T01:25:42.344Z,3.40
2022-09-11T01:26:42.632Z,4.20
2022-09-11T01:27:42.937Z,3.70
2022-09-11T01:28:43.250Z,4.50
2022-09-11T01:29:43.628Z,3.80
2022-09-11T01:30:43.915Z,5.90
2022-09-11T01:31:44.199Z,5.60
2022-09-11T01:32:44.516Z,5.20
2022-09-11T01:33:44.841Z,4.10
2022-09-11T01:34:45.092Z,3.60
2022-09-11T01:35:45.407Z,3.50
2022-09-11T01:36:45.821Z,3.20
2022-09-11T01:37:46.062Z,3.20
2022-09-11T01:38:46.401Z,3.10
2022-09-11T01:39:46.729Z,3.30
2022-09-11T01:40:47.011Z,3.40
2022-09-11T01:41:47.384Z,3.30
2022-09-11T01:42:47.705Z,3.90
2022-09-11T01:43:47.959Z,3.20
2022-09-11T01:44:48.318Z,3.00
2022-09-11T01:45:49.037Z,3.10
2022-09-11T01:46:48.871Z,3.10
2022-09-11T01:47:49.125Z,3.30
2022-09-11T01:48:49.365Z,3.00
2022-09-11T01:49:49.718Z,2.90
2022-09-11T01:50:50.002Z,2.80
2022-09-11T01:51:50.491Z,2.70
2022-09-11T01:52:52.393Z,2.80
2022-09-11T01:53:51.294Z,2.60
2022-09-11T01:54:51.126Z,2.80
2022-09-11T01:55:52.350Z,2.60
2022-09-11T01:56:51.663Z,2.60
2022-09-11T01:57:51.981Z,2.70
2022-09-11T01:58:52.313Z,2.70
2022-09-11T01:59:52.622Z,2.60
2022-09-11T02:00:52.772Z,2.80
2022-09-11T02:01:53.137Z,2.70
2022-09-11T02:02:53.260Z,2.90
2022-09-11T02:03:53.570Z,2.70
2022-09-11T02:04:53.771Z,2.60
2022-09-11T02:05:54.095Z,2.80
2022-09-11T02:06:54.405Z,2.90
2022-09-11T02:07:54.743Z,2.60
2022-09-11T02:08:55.107Z,2.90
2022-09-11T02:09:55.341Z,2.90
2022-09-11T02:10:55.718Z,3.00
2022-09-11T02:11:55.989Z,2.90
2022-09-11T02:12:56.296Z,2.90
2022-09-11T02:13:56.615Z,2.80
2022-09-11T02:14:56.881Z,2.70
2022-09-11T02:15:57.103Z,2.80
2022-09-11T02:16:57.466Z,2.60
2022-09-11T02:17:57.730Z,2.80
2022-09-11T02:18:58.110Z,2.60
2022-09-11T02:19:58.416Z,2.60
2022-09-11T02:20:58.671Z,2.70
2022-09-11T02:21:59.035Z,2.70
2022-09-11T02:22:59.331Z,2.80
2022-09-11T02:23:59.602Z,2.70
2022-09-11T02:24:59.951Z,2.80
2022-09-11T02:26:00.088Z,3.10
2022-09-11T02:27:00.398Z,2.80
2022-09-11T02:28:00.776Z,2.90
2022-09-11T02:29:01.014Z,2.90
2022-09-11T02:30:01.343Z,3.00
2022-09-11T02:31:01.621Z,2.90
2022-09-11T02:32:01.888Z,3.00
2022-09-11T02:33:02.184Z,2.90
2022-09-11T02:34:02.611Z,3.00
2022-09-11T02:35:02.836Z,3.10
2022-09-11T02:36:03.034Z,3.10
2022-09-11T02:37:03.230Z,3.10
2022-09-11T02:38:03.640Z,3.00
2022-09-11T02:39:03.900Z,3.00
2022-09-11T02:40:04.280Z,3.20
2022-09-11T02:41:04.456Z,5.10
2022-09-11T02:42:04.812Z,3.30
2022-09-11T02:43:05.514Z,2.80
2022-09-11T02:44:05.344Z,2.80
2022-09-11T02:45:05.624Z,3.00
2022-09-11T02:46:05.929Z,2.90
2022-09-11T02:47:06.238Z,3.40
2022-09-11T02:48:06.544Z,3.30
2022-09-11T02:49:06.866Z,3.10
2022-09-11T02:50:07.118Z,3.20
2022-09-11T02:51:07.438Z,2.90
2022-09-11T02:52:07.720Z,3.30
2022-09-11T02:53:08.069Z,3.10
2022-09-11T02:54:08.346Z,3.10
2022-09-11T02:55:08.698Z,3.20
2022-09-11T02:56:08.985Z,3.20
2022-09-11T02:57:09.288Z,3.10
2022-09-11T02:58:09.626Z,3.40
2022-09-11T02:59:09.845Z,3.30
2022-09-11T03:00:10.229Z,3.20
2022-09-11T03:01:10.500Z,3.40
2022-09-11T03:02:10.805Z,3.50
2022-09-11T03:03:11.049Z,3.40
2022-09-11T03:04:11.342Z,3.50
2022-09-11T03:05:11.642Z,3.50
2022-09-11T03:06:11.950Z,3.70
2022-09-11T03:07:12.225Z,3.40
2022-09-11T03:08:12.518Z,3.70
2022-09-11T03:09:12.850Z,3.70
2022-09-11T03:10:13.176Z,4.40
2022-09-11T03:11:13.512Z,4.20
2022-09-11T03:12:13.791Z,4.10
2022-09-11T03:13:14.080Z,3.90
2022-09-11T03:14:14.408Z,5.30
2022-09-11T03:15:14.624Z,4.40
2022-09-11T03:16:14.962Z,4.00
2022-09-11T03:17:15.244Z,3.70
2022-09-11T03:18:15.511Z,4.30
2022-09-11T03:19:15.748Z,4.50
2022-09-11T03:20:16.134Z,4.20
2022-09-11T03:21:16.442Z,4.20
2022-09-11T03:22:16.718Z,4.40
2022-09-11T03:23:16.964Z,4.40
2022-09-11T03:24:17.283Z,4.40
2022-09-11T03:25:18.488Z,4.40
2022-09-11T03:26:17.922Z,4.40
2022-09-11T03:27:18.243Z,4.50
2022-09-11T03:28:18.556Z,4.40
2022-09-11T03:29:18.870Z,4.80
2022-09-11T03:30:19.176Z,4.60
2022-09-11T03:31:19.406Z,4.90
2022-09-11T03:32:19.730Z,4.70
2022-09-11T03:33:20.012Z,4.60
2022-09-11T03:34:20.343Z,4.60
2022-09-11T03:35:20.637Z,4.80
2022-09-11T03:36:20.972Z,4.70
2022-09-11T03:37:21.206Z,4.90
2022-09-11T03:38:21.396Z,4.90
2022-09-11T03:39:21.723Z,4.80
2022-09-11T03:40:22.000Z,5.00
2022-09-11T03:41:22.272Z,4.90
2022-09-11T03:42:22.623Z,5.00
2022-09-11T03:43:22.938Z,4.90
2022-09-11T03:44:23.272Z,4.90
2022-09-11T03:45:23.629Z,5.00
2022-09-11T03:46:23.783Z,5.00
2022-09-11T03:47:24.129Z,4.90
2022-09-11T03:48:24.498Z,4.80
2022-09-11T03:49:24.673Z,4.80
2022-09-11T03:50:24.956Z,4.40
2022-09-11T03:51:25.259Z,4.40
2022-09-11T03:52:25.513Z,4.40
2022-09-11T03:53:25.808Z,4.70
2022-09-11T03:54:26.123Z,4.70
2022-09-11T03:55:27.298Z,4.70
2022-09-11T03:56:26.762Z,4.40
2022-09-11T03:57:27.071Z,4.60
2022-09-11T03:58:27.344Z,4.20
2022-09-11T03:59:27.701Z,4.70
2022-09-11T04:00:27.958Z,4.70
2022-09-11T04:01:28.241Z,4.70
2022-09-11T04:02:28.620Z,5.10
2022-09-11T04:03:28.879Z,5.30
2022-09-11T04:04:29.221Z,5.30
2022-09-11T04:05:29.500Z,5.50
2022-09-11T04:06:29.818Z,4.80
2022-09-11T04:07:30.221Z,5.40
2022-09-11T04:08:30.404Z,5.50
2022-09-11T04:09:30.771Z,5.30
2022-09-11T04:10:31.110Z,5.10
2022-09-11T04:11:35.472Z,5.00
2022-09-11T04:12:32.742Z,5.60
2022-09-11T04:13:32.049Z,5.60
2022-09-11T04:14:32.343Z,6.50
2022-09-11T04:15:32.631Z,6.30
2022-09-11T04:16:33.023Z,5.80
2022-09-11T04:17:33.125Z,5.60
2022-09-11T04:18:33.580Z,5.70
2022-09-11T04:19:33.859Z,6.00
2022-09-11T04:20:34.211Z,5.50
2022-09-11T04:21:34.481Z,5.60
2022-09-11T04:22:34.809Z,5.40
2022-09-11T04:23:35.179Z,5.60
2022-09-11T04:24:35.346Z,5.10
2022-09-11T04:25:35.632Z,5.20
2022-09-11T04:26:35.947Z,5.40
2022-09-11T04:27:36.223Z,5.30
2022-09-11T04:28:36.514Z,5.30
2022-09-11T04:29:36.702Z,5.20
2022-09-11T04:30:37.062Z,5.70
2022-09-11T04:31:37.288Z,6.50
2022-09-11T04:32:37.554Z,6.60
2022-09-11T04:33:38.021Z,5.60
2022-09-11T04:34:38.138Z,5.80
2022-09-11T04:35:38.482Z,6.50
2022-09-11T04:36:38.734Z,6.50
2022-09-11T04:37:39.046Z,6.00
2022-09-11T04:38:39.358Z,6.70
2022-09-11T04:39:39.674Z,6.30
2022-09-11T04:40:39.911Z,6.40
2022-09-11T04:41:40.127Z,6.20
2022-09-11T04:42:40.536Z,6.80
2022-09-11T04:43:40.817Z,6.30
2022-09-11T04:44:41.114Z,6.70
2022-09-11T04:45:41.289Z,6.70
2022-09-11T04:46:41.545Z,6.00
2022-09-11T04:47:41.915Z,5.30
2022-09-11T04:48:42.113Z,5.70
2022-09-11T04:49:42.483Z,5.70
2022-09-11T04:50:42.690Z,5.90
2022-09-11T04:51:42.924Z,5.90
2022-09-11T04:52:43.167Z,6.00
2022-09-11T04:53:43.531Z,6.30
2022-09-11T04:54:43.691Z,5.90
2022-09-11T04:55:43.907Z,5.70
2022-09-11T04:56:44.151Z,5.90
2022-09-11T04:57:44.380Z,5.90
2022-09-11T04:58:44.743Z,5.80
2022-09-11T04:59:45.106Z,5.90
2022-09-11T05:00:45.371Z,5.80
2022-09-11T05:01:45.664Z,6.10
2022-09-11T05:02:45.867Z,5.60
2022-09-11T05:03:46.103Z,6.10
2022-09-11T05:04:46.353Z,6.40
2022-09-11T05:05:46.582Z,6.00
2022-09-11T05:06:46.830Z,6.10
2022-09-11T05:07:47.073Z,6.10
2022-09-11T05:08:47.413Z,6.10
2022-09-11T05:09:47.617Z,5.90
2022-09-11T05:10:48.085Z,6.10
2022-09-11T05:11:48.098Z,6.30
2022-09-11T05:12:48.419Z,6.30
2022-09-11T05:13:48.824Z,6.30
2022-09-11T05:14:49.052Z,5.80
2022-09-11T05:15:49.271Z,6.00
2022-09-11T05:16:49.634Z,6.30
2022-09-11T05:17:49.880Z,6.70
2022-09-11T05:18:50.141Z,6.10
2022-09-11T05:19:50.362Z,6.30
2022-09-11T05:20:50.598Z,6.10
2022-09-11T05:21:51.302Z,6.40
2022-09-11T05:22:51.095Z,6.60
2022-09-11T05:23:51.326Z,6.30
2022-09-11T05:24:51.671Z,6.70
2022-09-11T05:25:51.898Z,6.50
2022-09-11T05:26:52.232Z,6.70
2022-09-11T05:27:52.433Z,6.40
2022-09-11T05:28:52.678Z,6.20
2022-09-11T05:29:52.913Z,6.00
2022-09-11T05:30:53.349Z,6.10
2022-09-11T05:31:53.625Z,5.70
2022-09-11T05:32:53.824Z,5.90
2022-09-11T05:33:54.037Z,5.40
2022-09-11T05:34:54.388Z,5.60
2022-09-11T05:35:54.680Z,5.70
2022-09-11T05:36:54.946Z,5.50
2022-09-11T05:37:55.157Z,5.40
2022-09-11T05:38:55.402Z,5.40
2022-09-11T05:39:55.690Z,5.40
2022-09-11T05:40:55.938Z,5.60
2022-09-11T05:41:56.372Z,5.50
2022-09-11T05:42:56.476Z,5.20
2022-09-11T05:43:56.700Z,5.40
2022-09-11T05:44:57.099Z,5.40
2022-09-11T05:45:57.371Z,5.30
2022-09-11T05:46:57.639Z,5.10
2022-09-11T05:47:58.432Z,5.20
2022-09-11T05:48:58.117Z,5.10
2022-09-11T05:49:58.531Z,5.50
2022-09-11T05:50:58.747Z,5.30
2022-09-11T05:51:59.002Z,5.40
2022-09-11T05:52:59.267Z,5.30
2022-09-11T05:53:59.510Z,5.30
2022-09-11T05:54:59.813Z,5.40
2022-09-11T05:56:00.035Z,5.20
2022-09-11T05:57:03.471Z,5.50
2022-09-11T05:58:01.683Z,5.40
2022-09-11T05:59:00.924Z,5.70
2022-09-11T06:00:01.183Z,5.20
2022-09-11T06:01:01.579Z,5.40
2022-09-11T06:02:01.678Z,5.40
2022-09-11T06:03:01.952Z,5.60
2022-09-11T06:04:02.248Z,5.50
2022-09-11T06:05:02.470Z,5.90
2022-09-11T06:06:02.700Z,5.80
2022-09-11T06:07:03.102Z,5.70
2022-09-11T06:08:03.333Z,5.60
2022-09-11T06:09:03.702Z,5.50
2022-09-11T06:10:03.923Z,5.80
2022-09-11T06:11:04.174Z,5.80
2022-09-11T06:12:04.442Z,5.90
2022-09-11T06:13:06.137Z,5.70
2022-09-11T06:14:05.039Z,5.60
2022-09-11T06:15:05.266Z,5.70
2022-09-11T06:16:05.731Z,5.90
2022-09-11T06:17:05.932Z,5.70
2022-09-11T06:18:06.115Z,6.00
2022-09-11T06:19:06.475Z,5.80
2022-09-11T06:20:06.759Z,5.60
2022-09-11T06:21:06.982Z,5.60
2022-09-11T06:22:07.213Z,5.50
2022-09-11T06:23:09.372Z,5.90
2022-09-11T06:24:07.778Z,5.70
2022-09-11T06:25:08.060Z,5.50
2022-09-11T06:26:08.304Z,5.60
2022-09-11T06:27:08.566Z,5.60
2022-09-11T06:28:08.767Z,5.60
2022-09-11T06:29:09.139Z,5.70
2022-09-11T06:30:09.417Z,6.20
2022-09-11T06:31:09.658Z,6.10
2022-09-11T06:32:09.921Z,5.70
2022-09-11T06:33:10.157Z,5.90
2022-09-11T06:34:10.417Z,5.60
2022-09-11T06:35:10.728Z,5.40
2022-09-11T06:36:10.920Z,5.50
2022-09-11T06:37:11.156Z,5.40
2022-09-11T06:38:11.413Z,5.30
2022-09-11T06:39:11.776Z,5.20
2022-09-11T06:40:12.024Z,5.10
2022-09-11T06:41:12.276Z,5.40
2022-09-11T06:42:12.504Z,6.60
2022-09-11T06:43:14.505Z,5.60
2022-09-11T06:44:13.088Z,5.60
2022-09-11T06:45:13.316Z,5.20
2022-09-11T06:46:13.679Z,5.20
2022-09-11T06:47:13.899Z,5.50
2022-09-11T06:48:14.165Z,5.20
2022-09-11T06:49:14.472Z,5.30
2022-09-11T06:50:14.684Z,5.10
2022-09-11T06:51:14.948Z,5.60
2022-09-11T06:52:15.212Z,5.20
2022-09-11T06:53:15.507Z,5.30
2022-09-11T06:54:15.701Z,5.40
2022-09-11T06:55:16.192Z,5.30
2022-09-11T06:56:16.297Z,5.30
2022-09-11T06:57:16.536Z,5.40
2022-09-11T06:58:17.735Z,5.10
2022-09-11T06:59:17.084Z,9.40
2022-09-11T07:00:17.527Z,5.30
2022-09-11T07:01:17.885Z,5.10
2022-09-11T07:02:18.027Z,5.50
2022-09-11T07:03:18.241Z,5.40
2022-09-11T07:04:18.480Z,5.50
2022-09-11T07:05:18.767Z,5.30
2022-09-11T07:06:18.980Z,5.30
2022-09-11T07:07:19.375Z,5.70
2022-09-11T07:08:24.290Z,5.40
2022-09-11T07:09:20.885Z,5.60
2022-09-11T07:10:20.175Z,5.30
2022-09-11T07:11:20.419Z,5.90
2022-09-11T07:12:20.664Z,5.90
2022-09-11T07:13:20.913Z,5.80
2022-09-11T07:14:21.300Z,5.90
2022-09-11T07:15:21.404Z,5.60
2022-09-11T07:16:21.826Z,5.80
2022-09-11T07:17:21.900Z,5.70
2022-09-11T07:18:23.220Z,5.60
2022-09-11T07:19:22.479Z,5.40
2022-09-11T07:20:23.299Z,5.30
2022-09-11T07:21:23.076Z,5.50
2022-09-11T07:22:23.625Z,5.60
2022-09-11T07:23:23.571Z,5.70
2022-09-11T07:24:23.815Z,5.60
2022-09-11T07:25:24.082Z,5.60
2022-09-11T07:26:24.329Z,5.80
2022-09-11T07:27:24.613Z,6.50
2022-09-11T07:28:24.933Z,6.20
2022-09-11T07:29:25.147Z,6.00
2022-09-11T07:30:25.655Z,5.90
2022-09-11T07:31:25.730Z,6.00
2022-09-11T07:32:26.028Z,23.50
2022-09-11T07:33:26.276Z,6.20
2022-09-11T07:34:26.514Z,6.10
2022-09-11T07:35:26.828Z,6.60
2022-09-11T07:36:27.061Z,5.90
2022-09-11T07:37:27.326Z,6.20
2022-09-11T07:38:27.562Z,5.90
2022-09-11T07:39:27.807Z,5.80
2022-09-11T07:40:28.071Z,6.00
2022-09-11T07:41:28.319Z,6.20
2022-09-11T07:42:28.588Z,5.90
2022-09-11T07:43:28.833Z,6.00
2022-09-11T07:44:29.175Z,6.40
2022-09-11T07:45:29.413Z,6.40
2022-09-11T07:46:29.641Z,6.60
2022-09-11T07:47:29.881Z,6.90
2022-09-11T07:48:30.116Z,7.20
2022-09-11T07:49:30.433Z,7.10
2022-09-11T07:50:30.704Z,7.60
2022-09-11T07:51:30.912Z,6.80
2022-09-11T07:52:31.150Z,6.50
2022-09-11T07:53:31.466Z,6.50
2022-09-11T07:54:31.789Z,6.40
2022-09-11T07:55:32.012Z,6.50
2022-09-11T07:56:32.358Z,8.00
2022-09-11T07:57:32.618Z,6.60
2022-09-11T07:58:32.824Z,6.60
2022-09-11T07:59:33.138Z,6.60
2022-09-11T08:00:36.975Z,7.50
2022-09-11T08:01:33.707Z,7.10
2022-09-11T08:02:34.054Z,7.20
2022-09-11T08:03:34.239Z,6.70
2022-09-11T08:04:34.460Z,7.30
2022-09-11T08:05:34.711Z,7.10
2022-09-11T08:06:34.955Z,8.00
2022-09-11T08:07:35.207Z,7.50
2022-09-11T08:08:35.543Z,7.60
2022-09-11T08:09:35.762Z,7.50
2022-09-11T08:10:36.136Z,6.90
2022-09-11T08:11:36.356Z,7.00
2022-09-11T08:12:36.593Z,6.90
2022-09-11T08:13:36.864Z,6.50
2022-09-11T08:14:37.141Z,6.60
2022-09-11T08:15:37.451Z,6.80
2022-09-11T08:16:37.749Z,7.10
2022-09-11T08:17:37.969Z,6.60
2022-09-11T08:18:38.218Z,6.90
2022-09-11T08:19:38.472Z,6.90
2022-09-11T08:20:38.748Z,6.80
2022-09-11T08:21:39.127Z,7.40
2022-09-11T08:22:39.336Z,7.30
2022-09-11T08:23:39.712Z,7.60
2022-09-11T08:24:39.927Z,7.40
2022-09-11T08:25:40.202Z,7.70
2022-09-11T08:26:40.435Z,7.80
2022-09-11T08:27:40.667Z,8.40
2022-09-11T08:28:40.964Z,8.70
2022-09-11T08:29:41.575Z,9.50
2022-09-11T08:30:41.458Z,8.20
2022-09-11T08:31:41.715Z,8.00
2022-09-11T08:32:42.195Z,8.40
2022-09-11T08:33:42.484Z,8.20
2022-09-11T08:34:42.555Z,8.60
2022-09-11T08:35:43.794Z,9.10
2022-09-11T08:36:43.076Z,9.10
2022-09-11T08:37:43.406Z,10.10
2022-09-11T08:38:43.643Z,10.70
2022-09-11T08:39:43.924Z,11.00
2022-09-11T08:40:44.292Z,10.80
2022-09-11T08:41:44.504Z,10.70
2022-09-11T08:42:44.750Z,10.60
2022-09-11T08:43:45.028Z,11.20
2022-09-11T08:44:45.325Z,11.60
2022-09-11T08:45:45.596Z,11.70
2022-09-11T08:46:45.891Z,11.40
2022-09-11T08:47:46.145Z,11.40
2022-09-11T08:48:46.384Z,10.90
2022-09-11T08:49:46.700Z,11.70
2022-09-11T08:50:47.248Z,11.90
2022-09-11T08:51:47.169Z,11.80
2022-09-11T08:52:47.438Z,11.50
2022-09-11T08:53:47.688Z,10.80
2022-09-11T08:54:47.965Z,10.50
2022-09-11T08:55:48.281Z,9.70
2022-09-11T08:56:48.611Z,9.30
2022-09-11T08:57:48.789Z,10.20
2022-09-11T08:58:49.124Z,10.00
2022-09-11T08:59:49.335Z,9.50
2022-09-11T09:00:49.619Z,9.50
2022-09-11T09:01:49.919Z,9.70
2022-09-11T09:02:50.171Z,9.90
2022-09-11T09:03:50.442Z,10.00
2022-09-11T09:04:50.711Z,9.90
2022-09-11T09:05:51.015Z,9.90
2022-09-11T09:06:51.258Z,9.90
2022-09-11T09:07:51.540Z,10.20
2022-09-11T09:08:51.852Z,10.10
2022-09-11T09:09:52.127Z,10.60
2022-09-11T09:10:52.406Z,10.20
2022-09-11T09:11:52.661Z,9.70
2022-09-11T09:12:52.935Z,8.80
2022-09-11T09:13:53.212Z,9.60
2022-09-11T09:14:53.436Z,9.30
2022-09-11T09:15:53.809Z,9.60
2022-09-11T09:16:54.055Z,9.50
2022-09-11T09:17:54.301Z,9.30
2022-09-11T09:18:54.544Z,9.90
2022-09-11T09:19:54.814Z,10.10
2022-09-11T09:20:55.083Z,11.00
2022-09-11T09:21:55.349Z,10.50
2022-09-11T09:22:55.625Z,9.90
2022-09-11T09:23:55.888Z,10.10
2022-09-11T09:24:56.213Z,10.50
2022-09-11T09:25:56.496Z,10.70
2022-09-11T09:26:56.735Z,15.70
2022-09-11T09:27:57.063Z,12.00
2022-09-11T09:28:57.296Z,12.90
2022-09-11T09:29:57.580Z,12.50
2022-09-11T09:30:57.841Z,11.40
2022-09-11T09:31:58.103Z,12.90
2022-09-11T09:32:58.400Z,11.70
2022-09-11T09:33:58.739Z,11.20
2022-09-11T09:34:59.002Z,9.90
2022-09-11T09:35:59.235Z,9.20
2022-09-11T09:36:59.529Z,11.00
2022-09-11T09:37:59.783Z,11.90
2022-09-11T09:39:00.108Z,10.70
2022-09-11T09:40:00.436Z,11.80
2022-09-11T09:41:00.701Z,12.80
2022-09-11T09:42:00.969Z,13.60
2022-09-11T09:43:01.248Z,11.80
2022-09-11T09:44:01.501Z,11.70
2022-09-11T09:45:01.765Z,11.20
2022-09-11T09:46:02.183Z,10.80
2022-09-11T09:47:02.320Z,11.30
2022-09-11T09:48:02.618Z,11.10
2022-09-11T09:49:02.857Z,10.60
2022-09-11T09:50:03.140Z,9.00
2022-09-11T09:51:03.374Z,8.30
2022-09-11T09:52:04.559Z,9.00
2022-09-11T09:53:04.051Z,9.30
2022-09-11T09:54:04.298Z,10.20
2022-09-11T09:55:04.607Z,10.50
2022-09-11T09:56:04.823Z,10.70
2022-09-11T09:57:05.130Z,10.90
2022-09-11T09:58:05.410Z,10.50
2022-09-11T09:59:05.654Z,9.20
2022-09-11T10:00:06.146Z,10.10
2022-09-11T10:01:06.343Z,10.10
2022-09-11T10:02:06.640Z,10.80
2022-09-11T10:03:06.925Z,10.50
2022-09-11T10:04:07.147Z,10.90
2022-09-11T10:05:07.431Z,11.30
2022-09-11T10:06:07.709Z,10.70
2022-09-11T10:07:08.071Z,11.10
2022-09-11T10:08:08.422Z,10.20
2022-09-11T10:09:08.550Z,9.40
2022-09-11T10:10:08.825Z,9.70
2022-09-11T10:11:09.077Z,9.30
2022-09-11T10:12:09.297Z,9.30
2022-09-11T10:13:19.036Z,8.70
2022-09-11T10:14:12.510Z,9.10
2022-09-11T10:15:11.337Z,9.60
2022-09-11T10:16:10.659Z,9.70
2022-09-11T10:17:10.891Z,9.00
2022-09-11T10:18:11.156Z,9.20
2022-09-11T10:19:11.420Z,8.20
2022-09-11T10:20:11.683Z,7.90
2022-09-11T10:21:11.980Z,8.10
2022-09-11T10:22:12.243Z,8.30
2022-09-11T10:23:12.521Z,7.70
2022-09-11T10:24:12.792Z,8.30
2022-09-11T10:25:13.076Z,7.20
2022-09-11T10:26:13.314Z,6.80
2022-09-11T10:27:13.570Z,6.90
2022-09-11T10:28:13.800Z,7.60
2022-09-11T10:29:14.013Z,7.80
2022-09-11T10:30:14.389Z,7.70
2022-09-11T10:31:14.691Z,7.70
2022-09-11T10:32:14.900Z,8.10
2022-09-11T10:33:15.135Z,8.50
2022-09-11T10:34:15.372Z,8.90
2022-09-11T10:35:15.602Z,8.90
2022-09-11T10:36:15.900Z,9.60
2022-09-11T10:37:16.140Z,9.10
2022-09-11T10:38:16.404Z,9.80
2022-09-11T10:39:16.665Z,9.70
2022-09-11T10:40:16.919Z,8.40
2022-09-11T10:41:17.198Z,8.80
2022-09-11T10:42:17.443Z,8.60
2022-09-11T10:43:17.696Z,8.50
2022-09-11T10:44:17.968Z,7.70
2022-09-11T10:45:18.217Z,8.00
2022-09-11T10:46:19.476Z,7.80
2022-09-11T10:47:18.821Z,8.40
2022-09-11T10:48:19.685Z,8.20
2022-09-11T10:49:19.788Z,8.80
2022-09-11T10:50:19.610Z,9.70
2022-09-11T10:51:19.877Z,10.10
2022-09-11T10:52:20.233Z,10.60
2022-09-11T10:53:20.479Z,9.80
2022-09-11T10:54:20.736Z,9.70
2022-09-11T10:55:21.437Z,10.10
2022-09-11T10:56:21.295Z,10.10
2022-09-11T10:57:21.569Z,10.10
2022-09-11T10:58:21.858Z,9.90
2022-09-11T10:59:22.085Z,9.00
2022-09-11T11:00:22.418Z,9.40
2022-09-11T11:01:22.653Z,9.00
2022-09-11T11:02:22.944Z,9.80
2022-09-11T11:03:23.141Z,9.70
2022-09-11T11:04:23.395Z,9.40
2022-09-11T11:05:23.813Z,9.60
2022-09-11T11:06:23.952Z,8.80
2022-09-11T11:07:24.278Z,9.40
2022-09-11T11:08:24.542Z,9.30
2022-09-11T11:09:28.952Z,9.40
2022-09-11T11:10:26.107Z,9.40
2022-09-11T11:11:25.434Z,9.50
2022-09-11T11:12:25.705Z,9.00
2022-09-11T11:13:26.257Z,9.20
2022-09-11T11:14:26.311Z,9.70
2022-09-11T11:15:30.096Z,9.50
2022-09-11T11:16:26.649Z,9.20
2022-09-11T11:17:26.875Z,9.90
2022-09-11T11:18:27.208Z,9.80
2022-09-11T11:19:27.414Z,9.70
2022-09-11T11:20:27.681Z,10.10
2022-09-11T11:21:27.926Z,10.50
2022-09-11T11:22:28.143Z,10.60
2022-09-11T11:23:28.458Z,10.00
2022-09-11T11:24:28.701Z,10.20
2022-09-11T11:25:28.997Z,10.40
2022-09-11T11:26:29.305Z,10.00
2022-09-11T11:27:29.563Z,10.30
2022-09-11T11:28:29.862Z,8.90
2022-09-11T11:29:30.162Z,8.60
2022-09-11T11:30:30.440Z,8.30
2022-09-11T11:31:30.700Z,8.50
2022-09-11T11:32:30.942Z,9.40
2022-09-11T11:33:31.263Z,8.90
2022-09-11T11:34:31.513Z,8.50
2022-09-11T11:35:31.797Z,8.90
2022-09-11T11:36:32.142Z,8.50
2022-09-11T11:37:32.395Z,8.10
2022-09-11T11:38:32.584Z,8.90
2022-09-11T11:39:32.845Z,8.90
2022-09-11T11:40:33.077Z,8.40
2022-09-11T11:41:33.371Z,8.30
2022-09-11T11:42:33.628Z,7.70
2022-09-11T11:43:33.849Z,8.30
2022-09-11T11:44:34.115Z,8.50
2022-09-11T11:45:34.463Z,8.30
2022-09-11T11:46:34.701Z,11.90
2022-09-11T11:47:34.920Z,19.80
2022-09-11T11:48:35.199Z,11.10
2022-09-11T11:49:35.478Z,9.50
2022-09-11T11:50:35.763Z,8.40
2022-09-11T11:51:36.086Z,8.30
2022-09-11T11:52:36.304Z,8.00
2022-09-11T11:53:36.567Z,7.70
2022-09-11T11:54:36.849Z,7.30
2022-09-11T11:55:37.137Z,7.00
2022-09-11T11:56:37.396Z,6.80
2022-09-11T11:57:37.674Z,6.10
2022-09-11T11:58:37.998Z,5.90
2022-09-11T11:59:38.313Z,6.50
2022-09-11T12:00:38.492Z,7.90
2022-09-11T12:01:38.836Z,8.20
2022-09-11T12:02:39.014Z,8.90
2022-09-11T12:03:39.294Z,9.30
2022-09-11T12:04:39.538Z,9.30
2022-09-11T12:05:39.786Z,9.10
2022-09-11T12:06:40.049Z,9.40
2022-09-11T12:07:40.334Z,8.60
2022-09-11T12:08:40.659Z,8.40
2022-09-11T12:09:40.917Z,9.10
2022-09-11T12:10:41.105Z,9.20
2022-09-11T12:11:41.377Z,9.20
2022-09-11T12:12:41.611Z,9.00
2022-09-11T12:13:41.919Z,8.60
2022-09-11T12:14:42.261Z,8.10
2022-09-11T12:15:42.417Z,8.50
2022-09-11T12:16:42.653Z,8.30
2022-09-11T12:17:42.903Z,8.70
2022-09-11T12:18:43.324Z,8.50
2022-09-11T12:19:43.553Z,8.30
2022-09-11T12:20:43.774Z,8.00
2022-09-11T12:21:44.004Z,7.70
2022-09-11T12:22:44.224Z,8.10
2022-09-11T12:23:44.512Z,8.30
2022-09-11T12:24:44.941Z,7.80
2022-09-11T12:25:45.050Z,7.30
2022-09-11T12:26:45.346Z,7.60
2022-09-11T12:27:45.527Z,7.40
2022-09-11T12:28:45.807Z,7.90
2022-09-11T12:29:46.123Z,7.30
2022-09-11T12:30:46.325Z,7.70
2022-09-11T12:31:46.634Z,7.10
2022-09-11T12:32:46.890Z,7.10
2022-09-11T12:33:47.280Z,7.00
2022-09-11T12:34:47.507Z,8.10
2022-09-11T12:35:47.760Z,11.80
2022-09-11T12:36:48.075Z,17.70
2022-09-11T12:37:52.219Z,11.70
2022-09-11T12:38:50.312Z,7.80
2022-09-11T12:39:48.916Z,7.70
2022-09-11T12:40:49.187Z,7.60
2022-09-11T12:41:49.403Z,7.60
2022-09-11T12:42:49.714Z,8.10
2022-09-11T12:43:49.968Z,8.00
2022-09-11T12:44:50.899Z,8.00
2022-09-11T12:45:50.526Z,9.00
2022-09-11T12:46:50.827Z,9.00
2022-09-11T12:47:51.098Z,9.00
2022-09-11T12:49:05.919Z,9.20
2022-09-11T12:49:52.594Z,9.00
2022-09-11T12:50:51.857Z,9.70
2022-09-11T12:51:52.180Z,9.60
2022-09-11T12:52:52.435Z,10.00
2022-09-11T12:53:52.696Z,10.00
2022-09-11T12:54:53.004Z,9.90
2022-09-11T12:55:53.359Z,9.40
2022-09-11T12:56:53.667Z,9.80
2022-09-11T12:57:53.839Z,9.40
2022-09-11T12:58:54.180Z,10.10
2022-09-11T12:59:54.471Z,9.60
2022-09-11T13:00:55.683Z,9.80
2022-09-11T13:01:55.078Z,9.70
2022-09-11T13:02:55.320Z,9.50
2022-09-11T13:03:55.716Z,9.50
2022-09-11T13:04:55.869Z,9.50
2022-09-11T13:05:56.102Z,9.00
2022-09-11T13:06:56.372Z,9.10
2022-09-11T13:07:56.664Z,8.80
2022-09-11T13:08:56.943Z,8.60
2022-09-11T13:09:57.254Z,8.60
2022-09-11T13:10:57.471Z,8.30
2022-09-11T13:11:57.769Z,9.20
2022-09-11T13:12:58.018Z,8.40
2022-09-11T13:13:58.307Z,8.60
2022-09-11T13:14:58.638Z,8.40
2022-09-11T13:15:58.914Z,8.30
2022-09-11T13:16:59.141Z,8.50
2022-09-11T13:17:59.484Z,8.00
2022-09-11T13:18:59.689Z,8.00